Time;durP1;ratioP1;P1;durP2;ratioP2;P2;SDS_P1;SDS_P2;PMS_P1;PMS_P2;Temp;Humidity;BMP_temperature;BMP_pressure;BME280_temperature;BME280_humidity;BME280_pressure;Samples;Min_cycle;Max_cycle;Signal;HPM_P1;HPM_P2
2022/06/22 00:00:36;;;;;;;;;;;;;;;26.62;60.14;98805.50;2075649;28;20319;-59
2022/06/22 00:01:36;;;;;;;;;;;;;;;26.62;59.92;98805.50;2077213;28;19911;-59
2022/06/22 00:02:37;;;;;;;;;;;;;;;26.61;60.02;98795.53;2075287;28;20900;-59
2022/06/22 00:03:38;;;;;;;;;;;;;;;26.60;59.95;98796.59;2078199;28;20250;-59
2022/06/22 00:04:47;;;;;;;;;;;;;;;26.60;59.74;98796.59;2074880;28;20212;-60
2022/06/22 00:05:49;;;;;;;;;;;;;;;26.61;59.82;98798.28;2076193;28;20418;-59
2022/06/22 00:06:52;;;;;;;;;;;;;;;26.61;59.56;98790.00;2077441;28;20908;-59
2022/06/22 00:07:58;;;;;;;;;;;;;;;26.59;59.86;98789.38;2079131;28;19924;-59
2022/06/22 00:09:00;;;;;;;;;;;;;;;26.59;59.48;98790.22;2078755;28;19952;-59
2022/06/22 00:10:03;;;;;;;;;;;;;;;26.60;59.46;98782.75;2078007;28;19913;-60
2022/06/22 00:11:12;;;;;;;;;;;;;;;26.59;59.47;98783.84;2076864;28;20499;-60
2022/06/22 00:12:21;;;;;;;;;;;;;;;26.60;59.38;98780.00;2074904;28;19917;-59
2022/06/22 00:13:24;;;;;;;;;;;;;;;26.60;59.34;98780.00;2070619;28;19979;-60
2022/06/22 00:14:27;;;;;;;;;;;;;;;26.59;59.21;98778.31;2073631;28;19924;-59
2022/06/22 00:15:27;;;;;;;;;;;;;;;26.59;59.34;98778.31;2078614;28;19917;-59
2022/06/22 00:16:28;;;;;;;;;;;;;;;26.61;59.30;98790.00;2078026;28;20146;-59
2022/06/22 00:17:37;;;;;;;;;;;;;;;26.59;59.21;98790.22;2070962;28;19917;-59
2022/06/22 00:18:39;;;;;;;;;;;;;;;26.59;59.31;98783.84;2072732;28;20367;-59
2022/06/22 00:19:40;;;;;;;;;;;;;;;26.59;59.44;98778.31;2076948;28;20163;-59
2022/06/22 00:20:48;;;;;;;;;;;;;;;26.60;59.26;98785.53;2078046;28;19944;-59
2022/06/22 00:21:48;;;;;;;;;;;;;;;26.61;59.52;98776.19;2075202;28;19932;-59
2022/06/22 00:22:51;;;;;;;;;;;;;;;26.60;59.42;98767.03;2075569;28;19925;-59
2022/06/22 00:23:54;;;;;;;;;;;;;;;26.61;59.33;98759.59;2076183;28;20046;-59
2022/06/22 00:25:10;;;;;;;;;;;;;;;26.59;59.26;98753.47;2078508;28;19963;-59
2022/06/22 00:26:19;;;;;;;;;;;;;;;26.59;59.38;98750.69;2069299;28;19917;-59
2022/06/22 00:27:39;;;;;;;;;;;;;;;26.58;59.34;98747.09;2074239;28;19967;-60
2022/06/22 00:28:51;;;;;;;;;;;;;;;26.57;59.08;98731.56;2075360;28;20004;-59
2022/06/22 00:30:07;;;;;;;;;;;;;;;26.57;59.25;98737.09;2073612;28;19917;-59
2022/06/22 00:31:23;;;;;;;;;;;;;;;26.56;59.30;98735.41;2076292;28;19917;-60
2022/06/22 00:32:28;;;;;;;;;;;;;;;26.57;58.96;98742.63;2073898;28;20236;-59
2022/06/22 00:33:28;;;;;;;;;;;;;;;26.57;58.93;98744.53;2077880;28;20002;-59
2022/06/22 00:34:30;;;;;;;;;;;;;;;26.57;59.11;98741.78;2074490;28;19909;-59
2022/06/22 00:35:48;;;;;;;;;;;;;;;26.56;58.77;98740.09;2077003;28;19924;-59
2022/06/22 00:36:49;;;;;;;;;;;;;;;26.54;58.98;98726.50;2076141;28;19987;-59
2022/06/22 00:37:52;;;;;;;;;;;;;;;26.55;58.85;98727.34;2071446;28;19917;-59
2022/06/22 00:38:53;;;;;;;;;;;;;;;26.53;58.91;98730.34;2076376;28;19921;-59
2022/06/22 00:39:54;;;;;;;;;;;;;;;26.54;58.87;98720.16;2070629;28;19969;-59
2022/06/22 00:40:57;;;;;;;;;;;;;;;26.53;58.77;98730.34;2075199;28;19917;-59
2022/06/22 00:41:58;;;;;;;;;;;;;;;26.53;58.74;98719.28;2078101;28;20019;-59
2022/06/22 00:42:58;;;;;;;;;;;;;;;26.51;58.86;98711.22;2076586;28;20343;-59
2022/06/22 00:44:05;;;;;;;;;;;;;;;26.52;58.89;98712.88;2076256;28;19917;-59
2022/06/22 00:45:07;;;;;;;;;;;;;;;26.51;58.92;98716.75;2077278;28;20700;-59
2022/06/22 00:46:15;;;;;;;;;;;;;;;26.51;58.93;98704.84;2074838;28;19928;-59
2022/06/22 00:47:36;;;;;;;;;;;;;;;26.51;58.66;98711.22;2077455;28;19917;-59
2022/06/22 00:48:36;;;;;;;;;;;;;;;26.51;58.57;98705.69;2075455;28;20626;-59
2022/06/22 00:49:42;;;;;;;;;;;;;;;26.51;58.75;98705.69;2075165;28;20190;-59
2022/06/22 00:50:47;;;;;;;;;;;;;;;26.50;58.50;98706.75;2078505;28;19908;-59
2022/06/22 00:51:48;;;;;;;;;;;;;;;26.50;58.33;98709.50;2076616;28;19920;-59
2022/06/22 00:53:03;;;;;;;;;;;;;;;26.51;58.50;98716.75;2076062;28;20008;-59
2022/06/22 00:54:10;;;;;;;;;;;;;;;26.51;57.96;98718.66;2074024;28;19931;-59
2022/06/22 00:55:21;;;;;;;;;;;;;;;26.51;58.08;98713.13;2077400;28;20154;-59
2022/06/22 00:56:37;;;;;;;;;;;;;;;26.51;58.19;98708.44;2076123;28;19904;-59
2022/06/22 00:57:40;;;;;;;;;;;;;;;26.52;57.96;98706.53;2074668;28;19916;-59
2022/06/22 00:58:52;;;;;;;;;;;;;;;26.52;58.15;98706.53;2077513;28;20153;-59
2022/06/22 01:00:01;;;;;;;;;;;;;;;26.52;57.94;98718.41;2074492;28;20236;-59
2022/06/22 01:01:20;;;;;;;;;;;;;;;26.54;58.11;98720.16;2075829;28;20533;-58
2022/06/22 01:02:31;;;;;;;;;;;;;;;26.51;57.82;98721.44;2071996;28;19913;-59
2022/06/22 01:03:31;;;;;;;;;;;;;;;26.48;57.69;98708.91;2077703;28;19923;-59
2022/06/22 01:04:44;;;;;;;;;;;;;;;26.47;57.52;98715.50;2075983;28;19913;-59
2022/06/22 01:05:59;;;;;;;;;;;;;;;26.46;57.49;98713.81;2076481;28;20303;-59
2022/06/22 01:07:07;;;;;;;;;;;;;;;26.47;57.64;98709.97;2077825;28;20326;-59
2022/06/22 01:08:10;;;;;;;;;;;;;;;26.47;57.46;98701.69;2077337;28;19924;-59
2022/06/22 01:09:10;;;;;;;;;;;;;;;26.47;57.30;98690.63;2075445;28;20601;-60
2022/06/22 01:10:16;;;;;;;;;;;;;;;26.48;57.59;98689.56;2078085;28;20208;-59
2022/06/22 01:13:13;;;;;;;;;;;;;;;26.50;57.78;98676.34;2074497;28;20827;-59
2022/06/22 01:14:24;;;;;;;;;;;;;;;26.50;57.66;98665.28;2073312;28;20262;-59
2022/06/22 01:15:36;;;;;;;;;;;;;;;26.51;57.88;98660.63;2080378;28;20007;-59
2022/06/22 01:16:38;;;;;;;;;;;;;;;26.50;57.96;98659.75;2075750;28;21133;-59
2022/06/22 01:17:54;;;;;;;;;;;;;;;26.51;58.02;98667.00;2078836;28;20275;-59
2022/06/22 01:18:57;;;;;;;;;;;;;;;26.51;57.82;98661.47;2076176;28;19916;-59
2022/06/22 01:19:57;;;;;;;;;;;;;;;26.51;57.85;98655.94;2075984;28;20573;-59
2022/06/22 01:21:03;;;;;;;;;;;;;;;26.50;57.80;98659.75;2077483;28;19921;-59
2022/06/22 01:22:22;;;;;;;;;;;;;;;26.50;58.09;98654.25;2076640;28;19995;-59
2022/06/22 01:23:22;;;;;;;;;;;;;;;26.50;57.96;98665.28;2075575;28;20370;-59
2022/06/22 01:24:22;;;;;;;;;;;;;;;26.50;57.92;98676.34;2077616;28;19909;-59
2022/06/22 01:25:23;;;;;;;;;;;;;;;26.49;58.08;98674.66;2075756;28;19908;-59
2022/06/22 01:26:23;;;;;;;;;;;;;;;26.50;58.16;98681.88;2075918;28;19909;-60
2022/06/22 01:27:23;;;;;;;;;;;;;;;26.51;57.89;98680.81;2078405;28;19908;-60
2022/06/22 01:28:25;;;;;;;;;;;;;;;26.51;58.07;98686.34;2074995;28;19956;-59
2022/06/22 01:29:26;;;;;;;;;;;;;;;26.50;58.06;98681.88;2076972;28;19931;-59
2022/06/22 01:30:37;;;;;;;;;;;;;;;26.50;58.05;98687.41;2074912;28;20323;-59
2022/06/22 01:31:42;;;;;;;;;;;;;;;26.51;58.06;98693.78;2074638;28;19939;-59
2022/06/22 01:32:42;;;;;;;;;;;;;;;26.50;58.09;98698.44;2076992;28;20240;-59
2022/06/22 01:33:45;;;;;;;;;;;;;;;26.49;57.84;98702.31;2069210;28;20229;-59
2022/06/22 01:34:51;;;;;;;;;;;;;;;26.49;58.12;98707.81;2068162;28;19932;-59
2022/06/22 01:35:53;;;;;;;;;;;;;;;26.51;57.97;98716.75;2069652;28;19945;-59
2022/06/22 01:36:59;;;;;;;;;;;;;;;26.51;58.04;98719.50;2071344;28;20473;-59
2022/06/22 01:38:10;;;;;;;;;;;;;;;26.51;58.03;98726.94;2070932;28;19922;-59
2022/06/22 01:39:14;;;;;;;;;;;;;;;26.48;58.06;98728.25;2077730;28;20377;-59
2022/06/22 01:40:37;;;;;;;;;;;;;;;26.46;57.37;98724.88;2075935;28;19999;-59
2022/06/22 01:41:43;;;;;;;;;;;;;;;26.44;57.04;98721.50;2066843;28;19923;-59
2022/06/22 01:42:48;;;;;;;;;;;;;;;26.45;56.78;98725.09;2070615;28;19921;-59
2022/06/22 01:43:56;;;;;;;;;;;;;;;26.46;56.78;98729.56;2069519;28;19917;-59
2022/06/22 01:44:59;;;;;;;;;;;;;;;26.46;56.76;98730.41;2066091;28;19956;-59
2022/06/22 01:46:03;;;;;;;;;;;;;;;26.46;56.50;98735.94;2074034;28;19956;-59
2022/06/22 01:47:15;;;;;;;;;;;;;;;26.47;56.74;98736.78;2077618;28;19999;-59
2022/06/22 01:48:19;;;;;;;;;;;;;;;26.48;56.46;98728.25;2073273;28;19909;-59
2022/06/22 01:49:20;;;;;;;;;;;;;;;26.47;56.88;98721.03;2076150;28;20219;-59
2022/06/22 01:50:32;;;;;;;;;;;;;;;26.47;56.96;98726.56;2076525;28;20303;-59
2022/06/22 01:51:34;;;;;;;;;;;;;;;26.47;57.00;98712.75;2075350;28;19919;-59
2022/06/22 01:52:39;;;;;;;;;;;;;;;26.48;57.16;98714.44;2073797;28;19927;-59
2022/06/22 01:53:47;;;;;;;;;;;;;;;26.48;57.41;98711.69;2073149;28;19952;-59
2022/06/22 01:54:55;;;;;;;;;;;;;;;26.48;57.41;98708.91;2078021;28;19916;-59
2022/06/22 01:55:55;;;;;;;;;;;;;;;26.48;57.20;98716.34;2074468;28;19924;-59
2022/06/22 01:57:10;;;;;;;;;;;;;;;26.47;57.43;98712.75;2076077;28;20006;-59
2022/06/22 01:58:14;;;;;;;;;;;;;;;26.48;57.44;98717.22;2076811;28;19955;-59
2022/06/22 01:59:34;;;;;;;;;;;;;;;26.47;57.55;98715.50;2075006;28;19917;-59
2022/06/22 02:00:34;;;;;;;;;;;;;;;26.46;57.36;98713.81;2061973;28;19915;-59
2022/06/22 02:01:53;;;;;;;;;;;;;;;26.45;57.60;98717.66;2067538;28;19906;-59
2022/06/22 02:03:10;;;;;;;;;;;;;;;26.46;57.52;98713.00;2076342;28;19923;-60
2022/06/22 02:04:13;;;;;;;;;;;;;;;26.46;57.54;98711.06;2074424;28;20406;-59
2022/06/22 02:05:25;;;;;;;;;;;;;;;26.45;57.43;98712.13;2077970;28;20070;-59
2022/06/22 02:08:02;;;;;;;;;;;;;;;26.46;57.31;98715.75;2076126;28;19916;-59
2022/06/22 02:09:07;;;;;;;;;;;;;;;26.46;57.50;98719.34;2075403;28;19905;-59
2022/06/22 02:10:21;;;;;;;;;;;;;;;26.45;57.65;98712.13;2078867;28;19959;-59
2022/06/22 02:11:23;;;;;;;;;;;;;;;26.46;57.48;98713.00;2076000;28;20011;-59
2022/06/22 02:12:28;;;;;;;;;;;;;;;26.46;57.44;98713.00;2076247;28;20132;-59
2022/06/22 02:13:33;;;;;;;;;;;;;;;26.46;57.67;98708.31;2076829;28;19927;-59
2022/06/22 02:14:33;;;;;;;;;;;;;;;26.45;57.56;98703.84;2076957;28;19963;-59
2022/06/22 02:15:39;;;;;;;;;;;;;;;26.45;57.36;98698.31;2075845;28;19928;-59
2022/06/22 02:16:43;;;;;;;;;;;;;;;26.46;57.57;98697.25;2075285;28;19916;-59
2022/06/22 02:17:44;;;;;;;;;;;;;;;26.46;57.67;98702.78;2075866;28;19916;-59
2022/06/22 02:18:50;;;;;;;;;;;;;;;26.46;57.30;98699.19;2075215;28;20180;-59
2022/06/22 02:20:09;;;;;;;;;;;;;;;26.45;57.46;98703.00;2076613;28;19913;-59
2022/06/22 02:21:18;;;;;;;;;;;;;;;26.45;57.35;98701.06;2074875;28;19956;-59
2022/06/22 02:22:19;;;;;;;;;;;;;;;26.44;57.02;98702.16;2068628;28;19913;-59
2022/06/22 02:23:19;;;;;;;;;;;;;;;26.44;57.30;98706.84;2076908;28;20040;-59
2022/06/22 02:24:22;;;;;;;;;;;;;;;26.43;57.30;98708.75;2072394;28;19916;-59
2022/06/22 02:25:26;;;;;;;;;;;;;;;26.44;57.27;98704.91;2068315;28;19913;-59
2022/06/22 02:26:31;;;;;;;;;;;;;;;26.44;57.30;98710.44;2076509;28;20231;-59
2022/06/22 02:27:31;;;;;;;;;;;;;;;26.44;57.20;98704.09;2071681;28;19916;-59
2022/06/22 02:28:32;;;;;;;;;;;;;;;26.44;56.94;98710.44;2073349;28;19955;-59
2022/06/22 02:29:34;;;;;;;;;;;;;;;26.44;56.91;98721.50;2072775;28;19921;-59
2022/06/22 02:30:34;;;;;;;;;;;;;;;26.45;57.18;98723.16;2062193;28;19948;-59
2022/06/22 02:31:35;;;;;;;;;;;;;;;26.45;57.05;98723.16;2064163;28;20515;-61
2022/06/22 02:32:37;;;;;;;;;;;;;;;26.45;57.05;98722.34;2071683;28;20181;-59
2022/06/22 02:33:39;;;;;;;;;;;;;;;26.45;57.15;98720.41;2071809;28;19988;-59
2022/06/22 02:34:41;;;;;;;;;;;;;;;26.45;57.30;98722.34;2073786;28;19917;-59
2022/06/22 02:35:42;;;;;;;;;;;;;;;26.44;57.41;98724.25;2072220;28;19979;-59
2022/06/22 02:36:45;;;;;;;;;;;;;;;26.44;57.15;98721.50;2072491;28;19920;-59
2022/06/22 02:38:02;;;;;;;;;;;;;;;26.44;57.25;98723.44;2074576;28;19947;-60
2022/06/22 02:39:03;;;;;;;;;;;;;;;26.44;57.36;98723.44;2071906;28;19912;-59
2022/06/22 02:40:06;;;;;;;;;;;;;;;26.43;57.39;98708.75;2071536;28;19917;-59
2022/06/22 02:45:09;;;;;;;;;;;;;;;26.42;57.30;98687.72;2069541;28;19921;-59
2022/06/22 02:46:11;;;;;;;;;;;;;;;26.41;57.10;98688.81;2070147;28;20005;-59
2022/06/22 02:47:21;;;;;;;;;;;;;;;26.42;57.25;98689.66;2075609;28;20284;-59
2022/06/22 02:48:27;;;;;;;;;;;;;;;26.41;57.22;98688.81;2073999;28;20419;-59
2022/06/22 02:49:33;;;;;;;;;;;;;;;26.42;57.16;98684.97;2070329;28;19932;-59
2022/06/22 02:50:42;;;;;;;;;;;;;;;26.42;57.32;98684.97;2073684;28;19920;-59
2022/06/22 02:51:44;;;;;;;;;;;;;;;26.41;56.88;98688.81;2075026;28;20327;-60
2022/06/22 02:52:56;;;;;;;;;;;;;;;26.41;56.90;98683.28;2075778;28;19917;-60
2022/06/22 02:53:58;;;;;;;;;;;;;;;26.41;57.12;98687.94;2073683;28;19916;-59
2022/06/22 02:54:59;;;;;;;;;;;;;;;26.40;56.96;98689.88;2077431;28;19917;-59
2022/06/22 02:56:01;;;;;;;;;;;;;;;26.41;56.89;98687.94;2076164;28;20285;-59
2022/06/22 02:57:19;;;;;;;;;;;;;;;26.41;56.80;98686.06;2075721;28;20382;-59
2022/06/22 02:58:31;;;;;;;;;;;;;;;26.41;57.00;98683.28;2076059;28;19916;-59
2022/06/22 02:59:32;;;;;;;;;;;;;;;26.41;56.97;98687.94;2069804;28;20401;-59
2022/06/22 03:00:34;;;;;;;;;;;;;;;26.42;57.06;98690.50;2074829;28;20059;-59
2022/06/22 03:01:35;;;;;;;;;;;;;;;26.42;57.04;98696.00;2076215;28;19929;-59
2022/06/22 03:02:36;;;;;;;;;;;;;;;26.41;57.12;98699.88;2075589;28;20062;-59
2022/06/22 03:03:36;;;;;;;;;;;;;;;26.42;57.01;98707.06;2075545;28;19950;-59
2022/06/22 03:04:37;;;;;;;;;;;;;;;26.42;57.13;98707.06;2075429;28;19909;-59
2022/06/22 03:05:39;;;;;;;;;;;;;;;26.42;57.16;98707.06;2063334;28;20354;-59
2022/06/22 03:06:42;;;;;;;;;;;;;;;26.42;56.78;98707.06;2070071;28;19998;-59
2022/06/22 03:07:50;;;;;;;;;;;;;;;26.41;56.86;98705.41;2071777;28;19940;-59
2022/06/22 03:08:51;;;;;;;;;;;;;;;26.41;57.17;98694.34;2070042;28;20754;-59
2022/06/22 03:09:52;;;;;;;;;;;;;;;26.42;56.92;98698.78;2076730;28;19921;-59
2022/06/22 03:10:55;;;;;;;;;;;;;;;26.41;56.93;98699.88;2076144;28;19921;-59
2022/06/22 03:11:58;;;;;;;;;;;;;;;26.41;57.02;98688.81;2075734;28;19917;-59
2022/06/22 03:12:59;;;;;;;;;;;;;;;26.41;56.92;98699.88;2070002;28;19925;-59
2022/06/22 03:14:05;;;;;;;;;;;;;;;26.41;56.79;98699.88;2070815;28;20402;-59
2022/06/22 03:15:07;;;;;;;;;;;;;;;26.40;57.15;98697.31;2078495;28;19955;-59
2022/06/22 03:16:15;;;;;;;;;;;;;;;26.40;57.15;98700.91;2070653;28;19917;-59
2022/06/22 03:17:22;;;;;;;;;;;;;;;26.40;57.13;98698.16;2076497;28;19990;-59
2022/06/22 03:18:26;;;;;;;;;;;;;;;26.40;57.21;98698.16;2078351;28;19924;-59
2022/06/22 03:19:31;;;;;;;;;;;;;;;26.39;56.89;98698.41;2069023;28;20036;-59
2022/06/22 03:20:34;;;;;;;;;;;;;;;26.39;57.10;98693.72;2076864;28;20522;-59
2022/06/22 03:21:35;;;;;;;;;;;;;;;26.39;56.86;98696.50;2076074;28;20011;-59
2022/06/22 03:22:42;;;;;;;;;;;;;;;26.38;56.81;98700.31;2068505;28;19923;-59
2022/06/22 03:23:54;;;;;;;;;;;;;;;26.38;57.00;98700.31;2074370;28;19923;-59
2022/06/22 03:24:57;;;;;;;;;;;;;;;26.38;56.81;98711.34;2074919;28;19909;-59
2022/06/22 03:26:05;;;;;;;;;;;;;;;26.38;56.92;98710.53;2077259;28;19917;-59
2022/06/22 03:27:16;;;;;;;;;;;;;;;26.39;56.90;98715.00;2069373;28;20239;-60
2022/06/22 03:28:18;;;;;;;;;;;;;;;26.39;57.06;98713.06;2073304;28;20908;-59
2022/06/22 03:29:32;;;;;;;;;;;;;;;26.39;56.87;98713.06;2068171;28;19917;-60
2022/06/22 03:30:47;;;;;;;;;;;;;;;26.39;57.01;98707.53;2070787;28;19917;-59
2022/06/22 03:31:52;;;;;;;;;;;;;;;26.38;56.87;98703.06;2072996;28;20248;-59
2022/06/22 03:33:08;;;;;;;;;;;;;;;26.38;57.18;98711.34;2072083;28;20015;-59
2022/06/22 03:34:10;;;;;;;;;;;;;;;26.39;57.05;98707.53;2069077;28;20027;-59
2022/06/22 03:35:34;;;;;;;;;;;;;;;26.38;56.88;98705.84;2071224;28;19917;-60
2022/06/22 03:37:04;;;;;;;;;;;;;;;26.38;57.02;98708.59;2075221;28;19917;-59
2022/06/22 03:38:13;;;;;;;;;;;;;;;26.38;56.84;98710.53;2046261;28;19965;-59
2022/06/22 03:39:16;;;;;;;;;;;;;;;26.38;56.90;98716.03;2050657;28;20009;-59
2022/06/22 03:40:22;;;;;;;;;;;;;;;26.38;56.82;98700.31;2077601;28;19917;-59
2022/06/22 03:41:26;;;;;;;;;;;;;;;26.38;56.92;98716.03;2074855;28;19916;-59
2022/06/22 03:42:29;;;;;;;;;;;;;;;26.39;57.18;98709.47;2075162;28;19913;-59
2022/06/22 03:43:29;;;;;;;;;;;;;;;26.38;56.84;98711.34;2078321;28;19917;-59
2022/06/22 03:44:33;;;;;;;;;;;;;;;26.38;57.09;98716.88;2075805;28;19905;-59
2022/06/22 03:45:37;;;;;;;;;;;;;;;26.39;56.95;98712.22;2076285;28;19921;-60
2022/06/22 03:46:43;;;;;;;;;;;;;;;26.38;56.98;98705.84;2074755;28;19913;-59
2022/06/22 03:47:57;;;;;;;;;;;;;;;26.38;57.06;98711.34;2075487;28;19967;-59
2022/06/22 03:49:12;;;;;;;;;;;;;;;26.39;56.95;98712.22;2076414;28;19946;-59
2022/06/22 03:50:12;;;;;;;;;;;;;;;26.38;56.88;98714.13;2069727;28;20304;-59
2022/06/22 03:51:17;;;;;;;;;;;;;;;26.37;57.01;98712.44;2072931;28;19921;-59
2022/06/22 03:52:22;;;;;;;;;;;;;;;26.37;56.89;98709.69;2072700;28;19921;-59
2022/06/22 03:53:37;;;;;;;;;;;;;;;26.36;56.71;98708.00;2072932;28;19924;-59
2022/06/22 03:55:01;;;;;;;;;;;;;;;26.36;56.79;98708.00;2077817;28;19939;-59
2022/06/22 03:56:03;;;;;;;;;;;;;;;26.36;56.93;98716.28;2069806;28;19916;-59
2022/06/22 03:57:07;;;;;;;;;;;;;;;26.36;56.94;98720.94;2077027;28;20307;-60
2022/06/22 03:58:09;;;;;;;;;;;;;;;26.36;56.64;98724.59;2076688;28;19917;-59
2022/06/22 03:59:09;;;;;;;;;;;;;;;26.36;56.77;98724.59;2077579;28;20274;-59
2022/06/22 04:00:11;;;;;;;;;;;;;;;26.35;56.72;98728.41;2077205;28;20014;-59
2022/06/22 04:01:13;;;;;;;;;;;;;;;26.35;57.01;98733.94;2073279;28;19920;-59
2022/06/22 04:02:13;;;;;;;;;;;;;;;26.35;57.05;98739.44;2078051;28;20242;-59
2022/06/22 04:03:15;;;;;;;;;;;;;;;26.34;57.02;98743.31;2076364;28;19919;-59
2022/06/22 04:04:16;;;;;;;;;;;;;;;26.34;56.77;98737.78;2077045;28;19959;-59
2022/06/22 04:05:18;;;;;;;;;;;;;;;26.35;56.95;98738.63;2074098;28;19962;-59
2022/06/22 04:06:32;;;;;;;;;;;;;;;26.34;57.06;98740.53;2071570;28;19972;-59
2022/06/22 04:07:34;;;;;;;;;;;;;;;26.34;56.84;98743.31;2075759;28;19912;-59
2022/06/22 04:08:39;;;;;;;;;;;;;;;26.34;56.72;98748.81;2076130;28;19917;-59
2022/06/22 04:09:41;;;;;;;;;;;;;;;26.34;56.72;98748.81;2072739;28;19917;-58
2022/06/22 04:10:46;;;;;;;;;;;;;;;26.34;56.82;98748.81;2071140;28;19956;-60
2022/06/22 04:11:53;;;;;;;;;;;;;;;26.34;56.77;98751.59;2073290;28;20404;-59
2022/06/22 04:12:55;;;;;;;;;;;;;;;26.35;56.97;98747.75;2076897;28;19920;-59
2022/06/22 04:13:59;;;;;;;;;;;;;;;26.34;57.02;98748.81;2073081;28;19957;-60
2022/06/22 04:15:09;;;;;;;;;;;;;;;26.35;57.05;98744.13;2077653;28;20022;-59
2022/06/22 04:16:13;;;;;;;;;;;;;;;26.35;56.99;98752.44;2071773;28;19921;-59
2022/06/22 04:17:24;;;;;;;;;;;;;;;26.34;56.73;98743.31;2073329;28;20318;-59
2022/06/22 04:18:34;;;;;;;;;;;;;;;26.35;57.04;98750.50;2074745;28;20277;-59
2022/06/22 04:19:41;;;;;;;;;;;;;;;26.35;56.94;98752.44;2076880;28;19920;-59
2022/06/22 04:20:53;;;;;;;;;;;;;;;26.34;56.88;98759.88;2076102;28;19940;-60
2022/06/22 04:21:57;;;;;;;;;;;;;;;26.34;57.03;98759.03;2073672;28;19921;-59
2022/06/22 04:22:58;;;;;;;;;;;;;;;26.34;57.05;98770.94;2073504;28;20469;-59
2022/06/22 04:24:01;;;;;;;;;;;;;;;26.34;56.71;98770.94;2070950;28;19921;-59
2022/06/22 04:25:08;;;;;;;;;;;;;;;26.35;56.80;98772.59;2072956;28;19963;-59
2022/06/22 04:26:12;;;;;;;;;;;;;;;26.35;56.82;98777.28;2073025;28;19947;-59
2022/06/22 04:27:15;;;;;;;;;;;;;;;26.34;57.01;98773.69;2069752;28;20644;-59
2022/06/22 04:28:17;;;;;;;;;;;;;;;26.35;56.76;98772.59;2075038;28;19912;-59
2022/06/22 04:29:24;;;;;;;;;;;;;;;26.34;56.78;98776.44;2069761;28;20212;-59
2022/06/22 04:30:28;;;;;;;;;;;;;;;26.34;56.76;98781.97;2070965;28;19917;-59
2022/06/22 04:31:34;;;;;;;;;;;;;;;26.34;56.98;98781.97;2070785;28;20198;-59
2022/06/22 04:32:39;;;;;;;;;;;;;;;26.33;56.73;98791.31;2071568;28;19921;-59
2022/06/22 04:33:42;;;;;;;;;;;;;;;26.34;56.68;98790.25;2069338;28;19920;-59
2022/06/22 04:34:46;;;;;;;;;;;;;;;26.33;56.95;98790.47;2070698;28;20210;-59
2022/06/22 04:36:05;;;;;;;;;;;;;;;26.33;56.70;98796.84;2070231;28;20016;-60
2022/06/22 04:37:09;;;;;;;;;;;;;;;26.33;56.92;98796.84;2072045;28;19908;-59
2022/06/22 04:38:18;;;;;;;;;;;;;;;26.32;56.82;98808.97;2073030;28;19923;-59
2022/06/22 04:39:23;;;;;;;;;;;;;;;26.31;57.03;98810.03;2069439;28;20272;-59
2022/06/22 04:40:42;;;;;;;;;;;;;;;26.32;57.16;98810.91;2067838;28;20008;-59
2022/06/22 04:41:43;;;;;;;;;;;;;;;26.30;56.75;98814.72;2069046;28;20008;-59
2022/06/22 04:42:43;;;;;;;;;;;;;;;26.30;56.69;98827.69;2070802;28;19917;-60
2022/06/22 04:43:43;;;;;;;;;;;;;;;26.30;56.66;98822.16;2069724;28;19953;-59
2022/06/22 04:44:46;;;;;;;;;;;;;;;26.29;56.46;98820.50;2071244;28;20304;-59
2022/06/22 04:45:48;;;;;;;;;;;;;;;26.29;56.42;98823.25;2070370;28;20364;-59
2022/06/22 04:46:50;;;;;;;;;;;;;;;26.28;56.39;98821.53;2071145;28;19917;-59
2022/06/22 04:47:50;;;;;;;;;;;;;;;26.28;56.24;98816.03;2073765;28;19963;-59
2022/06/22 04:48:53;;;;;;;;;;;;;;;26.29;56.17;98823.25;2072315;28;19948;-59
2022/06/22 04:49:58;;;;;;;;;;;;;;;26.29;56.16;98824.09;2070295;28;19917;-59
2022/06/22 04:51:00;;;;;;;;;;;;;;;26.30;56.27;98824.94;2072163;28;19922;-59
2022/06/22 04:52:12;;;;;;;;;;;;;;;26.29;56.43;98826.84;2074740;28;19920;-59
2022/06/22 04:53:22;;;;;;;;;;;;;;;26.30;56.39;98830.47;2073970;28;19920;-59
2022/06/22 04:54:22;;;;;;;;;;;;;;;26.29;56.63;98835.13;2069286;28;19921;-59
2022/06/22 04:55:25;;;;;;;;;;;;;;;26.29;56.37;98826.84;2071194;28;19960;-59
2022/06/22 04:56:30;;;;;;;;;;;;;;;26.29;56.50;98831.53;2069137;28;20234;-59
2022/06/22 04:57:33;;;;;;;;;;;;;;;26.29;56.46;98834.31;2071310;28;19913;-59
2022/06/22 04:58:45;;;;;;;;;;;;;;;26.29;56.52;98834.31;2071003;28;20158;-59
2022/06/22 04:59:46;;;;;;;;;;;;;;;26.28;56.69;98838.13;2075930;28;19905;-59
2022/06/22 05:00:46;;;;;;;;;;;;;;;26.30;56.79;98841.50;2071438;28;20245;-57
2022/06/22 05:01:50;;;;;;;;;;;;;;;26.29;56.54;98834.31;2076270;28;20042;-58
2022/06/22 05:03:00;;;;;;;;;;;;;;;26.26;56.76;98841.13;2074081;28;19994;-53
2022/06/22 05:04:05;;;;;;;;;;;;;;;26.26;56.48;98840.25;2066208;28;21439;-55
2022/06/22 05:05:14;;;;;;;;;;;;;;;26.16;55.94;98848.22;2073207;28;20524;-54
2022/06/22 05:06:24;;;;;;;;;;;;;;;26.08;55.67;98850.19;2070812;28;19928;-54
2022/06/22 05:07:36;;;;;;;;;;;;;;;26.01;55.91;98849.41;2074013;28;19909;-55
2022/06/22 05:08:40;;;;;;;;;;;;;;;25.99;56.11;98856.22;2073970;28;19913;-55
2022/06/22 05:09:44;;;;;;;;;;;;;;;25.95;55.76;98850.31;2075589;28;19913;-53
2022/06/22 05:10:56;;;;;;;;;;;;;;;25.91;55.88;98851.84;2076138;28;19981;-52
2022/06/22 05:11:57;;;;;;;;;;;;;;;25.86;55.62;98854.41;2063910;28;19916;-55
2022/06/22 05:13:02;;;;;;;;;;;;;;;25.83;55.92;98860.38;2068283;28;19929;-55
2022/06/22 05:14:04;;;;;;;;;;;;;;;25.81;55.76;98868.84;2074299;28;20347;-54
2022/06/22 05:15:05;;;;;;;;;;;;;;;25.79;55.73;98872.91;2077219;28;19916;-54
2022/06/22 05:16:09;;;;;;;;;;;;;;;25.80;55.78;98863.59;2076867;28;20023;-54
2022/06/22 05:17:18;;;;;;;;;;;;;;;25.76;55.99;98873.38;2076590;28;20386;-52
2022/06/22 05:18:24;;;;;;;;;;;;;;;25.72;55.62;98872.09;2073886;28;19956;-52
2022/06/22 05:19:29;;;;;;;;;;;;;;;25.66;55.81;98880.22;2075273;28;19966;-53
2022/06/22 05:20:42;;;;;;;;;;;;;;;25.71;56.04;98881.47;2066906;28;19924;-55
2022/06/22 05:21:45;;;;;;;;;;;;;;;25.73;56.44;98884.88;2070144;28;19906;-54
2022/06/22 05:22:47;;;;;;;;;;;;;;;25.74;56.42;98883.78;2071684;28;19905;-55
2022/06/22 05:23:52;;;;;;;;;;;;;;;25.72;55.84;98888.66;2068668;28;19915;-55
2022/06/22 05:24:58;;;;;;;;;;;;;;;25.69;55.95;98889.97;2072315;28;19917;-54
2022/06/22 05:26:01;;;;;;;;;;;;;;;25.69;56.03;98883.59;2071304;28;19952;-55
2022/06/22 05:27:06;;;;;;;;;;;;;;;25.69;56.40;98884.44;2071083;28;20334;-55
2022/06/22 05:28:08;;;;;;;;;;;;;;;25.70;56.30;98885.28;2072074;28;20006;-55
2022/06/22 05:29:18;;;;;;;;;;;;;;;25.72;56.37;98888.66;2076225;28;19923;-54
2022/06/22 05:30:18;;;;;;;;;;;;;;;25.70;56.24;98886.16;2070580;28;20269;-55
2022/06/22 05:31:29;;;;;;;;;;;;;;;25.69;56.22;98894.66;2073988;28;20188;-53
2022/06/22 05:32:33;;;;;;;;;;;;;;;25.69;56.55;98894.66;2076620;28;19954;-56
2022/06/22 05:33:35;;;;;;;;;;;;;;;25.69;56.56;98894.66;2073631;28;19951;-56
2022/06/22 05:34:38;;;;;;;;;;;;;;;25.69;56.42;98902.94;2073112;28;19913;-56
2022/06/22 05:35:42;;;;;;;;;;;;;;;25.69;56.49;98901.00;2074924;28;19912;-54
2022/06/22 05:36:48;;;;;;;;;;;;;;;25.68;56.64;98904.84;2075789;28;19932;-56
2022/06/22 05:37:51;;;;;;;;;;;;;;;25.66;56.95;98913.34;2075346;28;20174;-56
2022/06/22 05:38:54;;;;;;;;;;;;;;;25.62;57.01;98922.28;2076637;28;20015;-56
2022/06/22 05:39:55;;;;;;;;;;;;;;;25.63;57.09;98918.47;2067027;28;20000;-56
2022/06/22 05:40:56;;;;;;;;;;;;;;;25.62;57.27;98923.09;2066497;28;20023;-56
2022/06/22 05:41:56;;;;;;;;;;;;;;;25.62;57.22;98914.00;2075614;28;19905;-56
2022/06/22 05:42:57;;;;;;;;;;;;;;;25.62;57.53;98911.22;2072467;28;20035;-56
2022/06/22 05:44:00;;;;;;;;;;;;;;;25.62;57.62;98912.06;2077397;28;19912;-56
2022/06/22 05:45:01;;;;;;;;;;;;;;;25.60;57.52;98907.84;2073568;28;19912;-56
2022/06/22 05:46:06;;;;;;;;;;;;;;;25.60;57.53;98911.47;2074843;28;20579;-56
2022/06/22 05:47:12;;;;;;;;;;;;;;;25.60;57.74;98914.22;2076608;28;20050;-56
2022/06/22 05:48:21;;;;;;;;;;;;;;;25.59;57.77;98918.03;2074409;28;19971;-55
2022/06/22 05:49:25;;;;;;;;;;;;;;;25.61;57.82;98910.41;2072881;28;19988;-54